createdAt,value
2024-01-16T00:00:44.473Z,24.35
2024-01-16T00:01:44.502Z,24.37
2024-01-16T00:02:44.698Z,24.34
2024-01-16T00:03:44.584Z,24.35
2024-01-16T00:04:44.615Z,24.27
2024-01-16T00:55:43.976Z,24.11
2024-01-16T00:56:45.051Z,24.10
2024-01-16T00:57:44.961Z,24.11
2024-01-16T00:58:44.967Z,24.14
2024-01-16T00:59:45.045Z,24.08
2024-01-16T01:00:45.008Z,24.12
2024-01-16T01:01:44.982Z,24.10
2024-01-16T01:02:45.040Z,24.08
2024-01-16T01:03:45.006Z,24.06
2024-01-16T01:04:45.099Z,24.06
2024-01-16T01:05:45.129Z,24.10
2024-01-16T01:06:44.971Z,24.08
2024-01-16T01:07:44.982Z,24.10
2024-01-16T01:08:45.038Z,24.11
2024-01-16T01:09:44.994Z,24.05
2024-01-16T01:10:45.026Z,24.07
2024-01-16T01:11:45.144Z,24.07
2024-01-16T01:12:44.985Z,24.10
2024-01-16T01:13:45.017Z,24.05
2024-01-16T01:14:45.061Z,24.02
2024-01-16T01:15:44.999Z,24.05
2024-01-16T01:16:44.999Z,24.03
2024-01-16T01:17:45.045Z,24.04
2024-01-16T01:18:45.087Z,24.02
2024-01-16T01:19:45.003Z,23.98
2024-01-16T01:20:45.226Z,24.01
2024-01-16T01:21:45.020Z,23.95
2024-01-16T01:22:45.018Z,23.98
2024-01-16T01:23:45.225Z,24.02
2024-01-16T01:24:45.024Z,24.01
2024-01-16T01:25:45.024Z,24.01
2024-01-16T01:26:45.124Z,23.97
2024-01-16T01:27:45.048Z,23.97
2024-01-16T01:28:45.029Z,23.98
2024-01-16T01:29:45.124Z,23.98
2024-01-16T01:30:45.080Z,24.04
2024-01-16T01:31:45.037Z,23.95
2024-01-16T01:32:45.142Z,23.98
2024-01-16T01:33:45.124Z,23.93
2024-01-16T01:34:45.069Z,23.96
2024-01-16T01:35:45.097Z,23.97
2024-01-16T01:36:45.122Z,23.95
2024-01-16T01:37:45.146Z,23.95
2024-01-16T01:38:45.268Z,23.93
2024-01-16T01:39:45.203Z,23.92
2024-01-16T01:40:45.235Z,23.90
2024-01-16T01:41:45.280Z,23.96
2024-01-16T01:42:45.304Z,23.92
2024-01-16T01:43:45.360Z,23.90
2024-01-16T01:44:45.498Z,24.00
2024-01-16T01:45:45.400Z,23.90
2024-01-16T01:46:45.427Z,23.89
2024-01-16T01:47:45.623Z,23.92
2024-01-16T01:48:45.611Z,23.86
2024-01-16T01:49:45.564Z,23.88
2024-01-16T01:50:45.659Z,23.88
2024-01-16T01:51:45.610Z,23.83
2024-01-16T01:52:45.652Z,23.90
2024-01-16T01:53:45.792Z,23.84
2024-01-16T01:54:45.714Z,23.86
2024-01-16T01:55:45.756Z,23.81
2024-01-16T01:56:45.966Z,23.80
2024-01-16T01:57:45.841Z,23.87
2024-01-16T01:58:45.885Z,23.87
2024-01-16T01:59:45.990Z,23.86
2024-01-16T02:00:46.011Z,23.84
2024-01-16T02:01:46.000Z,23.87
2024-01-16T02:02:46.085Z,23.84
2024-01-16T02:03:46.117Z,23.86
2024-01-16T02:04:46.148Z,23.81
2024-01-16T02:05:46.213Z,23.81
2024-01-16T02:06:46.150Z,23.80
2024-01-16T02:07:46.187Z,23.78
2024-01-16T02:08:46.291Z,23.74
2024-01-16T02:09:46.260Z,23.71
2024-01-16T02:10:46.288Z,23.81
2024-01-16T02:11:46.368Z,23.78
2024-01-16T02:12:46.365Z,23.78
2024-01-16T02:13:46.387Z,23.78
2024-01-16T02:14:46.499Z,23.81
2024-01-16T02:15:46.472Z,23.75
2024-01-16T02:16:46.571Z,23.80
2024-01-16T02:17:46.597Z,23.76
2024-01-16T02:18:46.574Z,23.74
2024-01-16T02:19:46.585Z,23.74
2024-01-16T02:20:46.685Z,23.71
2024-01-16T02:21:50.323Z,23.77
2024-01-16T02:22:46.642Z,23.74
2024-01-16T02:23:46.735Z,23.73
2024-01-16T02:24:46.657Z,23.75
2024-01-16T02:25:46.657Z,23.71
2024-01-16T02:26:46.780Z,23.71
2024-01-16T02:27:46.683Z,23.80
2024-01-16T02:28:46.710Z,23.72
2024-01-16T02:29:46.813Z,23.71
2024-01-16T02:30:46.822Z,23.71
2024-01-16T02:31:46.854Z,23.68
2024-01-16T02:32:46.946Z,23.71
2024-01-16T02:33:46.951Z,23.69
2024-01-16T02:34:46.908Z,23.72
2024-01-16T02:35:47.015Z,23.68
2024-01-16T02:36:46.980Z,23.66
2024-01-16T02:37:47.017Z,23.69
2024-01-16T02:38:47.243Z,23.65
2024-01-16T02:39:47.085Z,23.63
2024-01-16T02:40:47.120Z,23.63
2024-01-16T02:41:47.197Z,23.66
2024-01-16T02:42:47.197Z,23.62
2024-01-16T02:43:47.231Z,23.60
2024-01-16T02:44:47.331Z,23.59
2024-01-16T02:45:47.319Z,23.53
2024-01-16T02:46:47.358Z,23.57
2024-01-16T02:47:47.469Z,23.59
2024-01-16T02:48:47.591Z,23.57
2024-01-16T02:49:47.476Z,23.62
2024-01-16T02:50:47.583Z,23.56
2024-01-16T02:51:47.552Z,23.56
2024-01-16T02:52:47.581Z,23.59
2024-01-16T02:53:47.675Z,23.51
2024-01-16T02:54:47.663Z,23.51
2024-01-16T02:55:47.711Z,23.51
2024-01-16T02:56:47.862Z,23.53
2024-01-16T02:57:47.799Z,23.53
2024-01-16T02:58:47.825Z,23.50
2024-01-16T02:59:48.079Z,23.53
2024-01-16T03:00:47.951Z,23.56
2024-01-16T03:01:47.935Z,23.51
2024-01-16T03:02:48.133Z,23.51
2024-01-16T03:03:48.073Z,23.48
2024-01-16T03:04:48.056Z,23.47
2024-01-16T03:05:48.157Z,23.51
2024-01-16T03:06:48.286Z,23.48
2024-01-16T03:07:48.198Z,23.57
2024-01-16T03:08:48.307Z,23.48
2024-01-16T03:09:48.256Z,23.44
2024-01-16T03:10:48.298Z,23.47
2024-01-16T03:11:48.426Z,23.45
2024-01-16T03:12:48.378Z,23.48
2024-01-16T03:13:48.427Z,23.42
2024-01-16T03:14:48.486Z,23.39
2024-01-16T03:15:48.490Z,23.36
2024-01-16T03:16:48.531Z,23.39
2024-01-16T03:17:48.773Z,23.44
2024-01-16T03:18:48.799Z,23.42
2024-01-16T03:19:48.672Z,23.43
2024-01-16T03:20:48.755Z,23.36
2024-01-16T03:21:48.710Z,23.42
2024-01-16T03:22:48.759Z,23.41
2024-01-16T03:23:49.005Z,23.39
2024-01-16T03:24:48.841Z,23.39
2024-01-16T03:25:48.891Z,23.39
2024-01-16T03:26:48.963Z,23.36
2024-01-16T03:27:48.955Z,23.38
2024-01-16T03:28:48.997Z,23.36
2024-01-16T03:29:49.045Z,23.41
2024-01-16T03:30:49.139Z,23.41
2024-01-16T03:31:49.221Z,23.36
2024-01-16T03:32:49.221Z,23.36
2024-01-16T03:33:49.259Z,23.35
2024-01-16T03:34:49.250Z,23.33
2024-01-16T03:35:49.432Z,23.33
2024-01-16T03:36:49.292Z,23.32
2024-01-16T03:37:49.352Z,23.35
2024-01-16T03:38:49.406Z,23.32
2024-01-16T03:39:49.419Z,23.32
2024-01-16T03:40:49.486Z,23.35
2024-01-16T03:41:49.607Z,23.29
2024-01-16T03:42:49.563Z,23.32
2024-01-16T03:43:49.576Z,23.33
2024-01-16T03:44:49.687Z,23.35
2024-01-16T03:45:49.660Z,23.25
2024-01-16T03:46:49.697Z,23.29
2024-01-16T03:47:49.816Z,23.27
2024-01-16T03:48:49.903Z,23.30
2024-01-16T03:49:49.843Z,23.25
2024-01-16T03:50:49.906Z,23.24
2024-01-16T03:51:49.944Z,23.26
2024-01-16T03:52:49.949Z,23.25
2024-01-16T03:53:50.010Z,23.23
2024-01-16T03:54:50.062Z,23.23
2024-01-16T03:55:50.069Z,23.22
2024-01-16T03:56:50.191Z,23.18
2024-01-16T03:57:50.142Z,23.24
2024-01-16T03:58:50.181Z,23.19
2024-01-16T03:59:50.281Z,23.21
2024-01-16T04:00:50.274Z,23.19
2024-01-16T04:01:50.296Z,23.19
2024-01-16T04:02:50.402Z,23.16
2024-01-16T04:03:50.400Z,23.19
2024-01-16T04:04:50.465Z,23.19
2024-01-16T04:05:50.545Z,23.19
2024-01-16T04:06:50.502Z,23.19
2024-01-16T04:07:50.606Z,23.19
2024-01-16T04:08:50.634Z,23.11
2024-01-16T04:09:50.645Z,23.13
2024-01-16T04:10:50.683Z,23.16
2024-01-16T04:11:50.788Z,23.13
2024-01-16T04:12:50.771Z,23.16
2024-01-16T04:13:51.040Z,23.03
2024-01-16T04:14:50.978Z,23.13
2024-01-16T04:15:50.903Z,23.14
2024-01-16T04:16:50.933Z,23.09
2024-01-16T04:17:51.038Z,23.09
2024-01-16T04:18:51.171Z,23.11
2024-01-16T04:19:51.070Z,23.07
2024-01-16T04:20:51.186Z,23.11
2024-01-16T04:21:51.124Z,23.11
2024-01-16T04:22:51.944Z,23.08
2024-01-16T04:23:51.250Z,23.13
2024-01-16T04:24:51.254Z,23.10
2024-01-16T04:25:51.275Z,23.08
2024-01-16T04:26:51.372Z,23.09
2024-01-16T04:27:51.360Z,23.07
2024-01-16T04:28:51.398Z,23.10
2024-01-16T04:29:51.488Z,23.03
2024-01-16T04:30:51.505Z,23.02
2024-01-16T04:31:51.514Z,23.03
2024-01-16T04:32:51.674Z,23.02
2024-01-16T04:33:51.916Z,23.02
2024-01-16T04:34:51.632Z,23.02
2024-01-16T04:35:51.748Z,23.03
2024-01-16T04:36:51.710Z,23.02
2024-01-16T04:37:51.744Z,23.00
2024-01-16T04:38:51.833Z,23.03
2024-01-16T04:39:51.875Z,22.98
2024-01-16T04:40:51.890Z,22.97
2024-01-16T04:41:51.951Z,23.01
2024-01-16T04:42:51.979Z,23.03
2024-01-16T04:43:52.027Z,23.01
2024-01-16T04:44:52.141Z,22.97
2024-01-16T04:45:52.113Z,22.97
2024-01-16T04:46:52.171Z,22.97
2024-01-16T04:47:52.286Z,22.94
2024-01-16T04:48:52.357Z,22.94
2024-01-16T04:49:59.605Z,22.98
2024-01-16T04:51:00.656Z,22.95
2024-01-16T04:52:00.618Z,22.94
2024-01-16T04:53:00.633Z,22.95
2024-01-16T04:54:00.628Z,22.95
2024-01-16T04:55:00.652Z,22.95
2024-01-16T04:56:00.630Z,22.90
2024-01-16T04:57:00.611Z,22.82
2024-01-16T04:58:00.611Z,22.85
2024-01-16T04:59:00.618Z,22.85
2024-01-16T05:00:00.711Z,22.89
2024-01-16T05:01:01.257Z,22.90
2024-01-16T05:02:00.623Z,22.90
2024-01-16T05:03:00.720Z,22.92
2024-01-16T05:04:00.683Z,22.82
2024-01-16T05:05:00.674Z,22.89
2024-01-16T05:06:00.835Z,22.82
2024-01-16T05:07:00.663Z,22.87
2024-01-16T05:08:00.700Z,22.72
2024-01-16T05:09:00.741Z,22.77
2024-01-16T05:10:00.670Z,22.72
2024-01-16T05:11:00.651Z,22.71
2024-01-16T05:12:00.620Z,22.69
2024-01-16T05:13:00.619Z,22.74
2024-01-16T05:14:00.626Z,22.72
2024-01-16T05:15:00.649Z,22.65
2024-01-16T05:16:00.634Z,22.72
2024-01-16T05:17:00.642Z,22.74
2024-01-16T05:18:00.817Z,22.68
2024-01-16T05:19:00.762Z,22.72
2024-01-16T05:20:00.714Z,22.71
2024-01-16T05:21:01.034Z,22.76
2024-01-16T05:22:00.756Z,22.71
2024-01-16T05:23:00.829Z,22.69
2024-01-16T05:24:01.840Z,22.61
2024-01-16T05:25:00.938Z,22.61
2024-01-16T05:26:00.955Z,22.61
2024-01-16T05:27:01.052Z,22.65
2024-01-16T05:28:01.060Z,22.62
2024-01-16T05:29:01.118Z,22.61
2024-01-16T05:30:01.237Z,22.56
2024-01-16T05:31:01.284Z,22.58
2024-01-16T05:32:01.270Z,22.58
2024-01-16T05:33:01.397Z,22.58
2024-01-16T05:34:01.529Z,22.61
2024-01-16T05:35:01.401Z,22.60
2024-01-16T05:36:01.602Z,22.60
2024-01-16T05:37:01.496Z,22.61
2024-01-16T05:38:01.753Z,22.60
2024-01-16T05:39:01.588Z,22.58
2024-01-16T05:40:01.654Z,22.58
2024-01-16T05:41:01.685Z,22.55
2024-01-16T05:42:01.790Z,22.61
2024-01-16T05:43:01.816Z,22.60
2024-01-16T05:44:01.862Z,22.58
2024-01-16T05:45:01.884Z,22.58
2024-01-16T05:46:02.018Z,22.58
2024-01-16T05:47:01.991Z,22.61
2024-01-16T05:48:02.395Z,22.61
2024-01-16T05:49:02.387Z,22.61
2024-01-16T05:50:02.231Z,22.56
2024-01-16T05:51:02.576Z,22.58
2024-01-16T05:52:02.221Z,22.61
2024-01-16T05:53:02.269Z,22.53
2024-01-16T05:54:02.320Z,22.53
2024-01-16T05:55:02.367Z,22.49
2024-01-16T05:56:02.413Z,22.53
2024-01-16T05:57:02.487Z,22.58
2024-01-16T05:58:02.494Z,22.55
2024-01-16T05:59:02.581Z,22.53
2024-01-16T06:00:02.624Z,22.50
2024-01-16T06:01:02.686Z,22.45
2024-01-16T06:02:02.726Z,22.49
2024-01-16T06:03:02.750Z,22.42
2024-01-16T06:04:02.803Z,22.44
2024-01-16T06:05:02.841Z,22.47
2024-01-16T06:06:03.015Z,22.44
2024-01-16T06:07:02.972Z,22.45
2024-01-16T06:08:02.973Z,22.42
2024-01-16T06:09:03.029Z,22.39
2024-01-16T06:10:04.620Z,22.33
2024-01-16T06:11:03.064Z,22.40
2024-01-16T06:12:03.084Z,22.34
2024-01-16T06:13:03.063Z,22.37
2024-01-16T06:14:03.068Z,22.42
2024-01-16T06:15:03.170Z,22.36
2024-01-16T06:16:03.071Z,22.36
2024-01-16T06:17:03.076Z,22.42
2024-01-16T06:18:03.273Z,22.40
2024-01-16T06:19:03.175Z,22.38
2024-01-16T06:20:03.297Z,22.35
2024-01-16T06:21:03.134Z,22.38
2024-01-16T06:22:03.069Z,22.54
2024-01-16T06:23:03.090Z,22.67
2024-01-16T06:24:03.251Z,22.63
2024-01-16T06:25:03.075Z,22.79
2024-01-16T06:26:03.086Z,22.82
2024-01-16T06:27:03.094Z,23.01
2024-01-16T06:28:04.362Z,23.11
2024-01-16T06:29:03.098Z,23.08
2024-01-16T06:30:03.193Z,23.21
2024-01-16T06:31:03.161Z,23.37
2024-01-16T06:32:03.207Z,23.39
2024-01-16T06:33:03.312Z,23.53
2024-01-16T06:34:03.323Z,23.57
2024-01-16T06:35:03.273Z,23.79
2024-01-16T06:36:03.342Z,23.68
2024-01-16T06:37:03.791Z,23.72
2024-01-16T06:38:03.395Z,23.87
2024-01-16T06:39:03.427Z,23.82
2024-01-16T06:40:03.457Z,23.86
2024-01-16T06:41:03.795Z,23.86
2024-01-16T06:42:04.073Z,24.05
2024-01-16T06:43:03.561Z,24.26
2024-01-16T06:44:03.672Z,24.47
2024-01-16T06:45:03.622Z,24.82
2024-01-16T06:46:03.655Z,24.95
2024-01-16T06:47:03.900Z,25.47
2024-01-16T06:48:03.921Z,25.63
2024-01-16T06:49:03.784Z,25.66
2024-01-16T06:50:03.792Z,25.94
2024-01-16T06:51:03.769Z,26.14
2024-01-16T06:52:04.268Z,26.38
2024-01-16T06:53:03.800Z,26.52
2024-01-16T06:54:04.333Z,26.82
2024-01-16T06:55:03.838Z,26.95
2024-01-16T06:56:03.925Z,26.95
2024-01-16T06:57:07.472Z,27.57
2024-01-16T06:58:03.899Z,27.62
2024-01-16T06:59:04.279Z,27.77
2024-01-16T07:00:04.038Z,28.01
2024-01-16T07:01:03.934Z,28.33
2024-01-16T07:02:04.277Z,28.54
2024-01-16T07:03:03.911Z,28.75
2024-01-16T07:04:04.344Z,28.10
2024-01-16T07:05:03.932Z,25.27
2024-01-16T07:06:04.223Z,24.37
2024-01-16T07:07:03.915Z,23.54
2024-01-16T07:08:03.903Z,22.72
2024-01-16T07:09:04.281Z,23.43
2024-01-16T07:10:03.895Z,24.51
2024-01-16T07:11:03.887Z,25.68
2024-01-16T07:12:03.906Z,26.61
2024-01-16T07:13:07.079Z,27.07
2024-01-16T07:14:04.287Z,27.23
2024-01-16T07:15:03.914Z,27.43
2024-01-16T07:16:03.882Z,27.45
2024-01-16T07:17:03.969Z,27.63
2024-01-16T07:18:04.019Z,27.75
2024-01-16T07:19:04.420Z,27.92
2024-01-16T07:20:03.924Z,28.12
2024-01-16T07:21:03.951Z,28.21
2024-01-16T07:22:04.293Z,28.38
2024-01-16T07:23:03.918Z,28.45
2024-01-16T07:24:03.876Z,28.62
2024-01-16T07:25:04.274Z,28.72
2024-01-16T07:26:05.519Z,28.89
2024-01-16T07:27:03.913Z,29.17
2024-01-16T07:28:04.018Z,29.55
2024-01-16T07:29:03.897Z,29.28
2024-01-16T07:30:04.335Z,29.49
2024-01-16T07:31:03.961Z,29.47
2024-01-16T07:32:03.895Z,29.55
2024-01-16T07:33:04.413Z,29.80
2024-01-16T07:34:04.555Z,29.88
2024-01-16T07:35:04.304Z,30.02
2024-01-16T07:36:03.921Z,30.26
2024-01-16T07:37:07.141Z,30.38
2024-01-16T07:38:05.624Z,30.57
2024-01-16T07:39:04.433Z,30.67
2024-01-16T07:40:04.268Z,30.88
2024-01-16T07:41:03.939Z,31.04
2024-01-16T07:42:04.580Z,31.03
2024-01-16T07:43:03.923Z,31.23
2024-01-16T07:44:04.305Z,31.26
2024-01-16T07:45:04.942Z,31.98
2024-01-16T07:46:03.942Z,31.84
2024-01-16T07:47:03.952Z,31.00
2024-01-16T07:48:04.054Z,31.43
2024-01-16T07:49:05.203Z,31.38
2024-01-16T07:50:08.793Z,31.23
2024-01-16T07:51:04.425Z,31.51
2024-01-16T07:52:04.518Z,31.56
2024-01-16T07:53:04.258Z,31.58
2024-01-16T07:54:05.023Z,31.60
2024-01-16T07:55:04.670Z,31.65
2024-01-16T07:56:04.505Z,31.77
2024-01-16T07:57:04.284Z,31.87
2024-01-16T07:58:04.299Z,31.99
2024-01-16T07:59:03.941Z,32.07
2024-01-16T08:00:05.218Z,32.12
2024-01-16T08:01:04.402Z,32.22
2024-01-16T08:02:04.289Z,32.37
2024-01-16T08:03:04.821Z,32.39
2024-01-16T08:04:04.122Z,32.44
2024-01-16T08:05:03.937Z,32.53
2024-01-16T08:06:05.509Z,32.54
2024-01-16T08:07:04.323Z,32.53
2024-01-16T08:08:04.820Z,32.59
2024-01-16T08:09:04.884Z,32.53
2024-01-16T08:10:04.650Z,31.17
2024-01-16T08:11:04.544Z,31.81
2024-01-16T08:12:04.501Z,31.92
2024-01-16T08:13:04.542Z,32.03
2024-01-16T08:14:04.412Z,32.01
2024-01-16T08:15:04.260Z,32.16
2024-01-16T08:16:04.160Z,32.30
2024-01-16T08:17:04.137Z,32.39
2024-01-16T08:18:04.538Z,32.52
2024-01-16T08:19:04.764Z,32.48
2024-01-16T08:20:04.072Z,32.62
2024-01-16T08:21:04.160Z,32.60
2024-01-16T08:22:06.682Z,32.64
2024-01-16T08:23:04.031Z,32.75
2024-01-16T08:24:05.152Z,32.74
2024-01-16T08:25:04.454Z,32.80
2024-01-16T08:26:04.365Z,32.76
2024-01-16T08:27:04.150Z,32.83
2024-01-16T08:28:04.026Z,33.09
2024-01-16T08:29:04.056Z,33.24
2024-01-16T08:30:04.843Z,33.15
2024-01-16T08:31:04.447Z,33.26
2024-01-16T08:32:04.102Z,33.31
2024-01-16T08:33:04.211Z,33.47
2024-01-16T08:34:05.445Z,33.26
2024-01-16T08:35:04.542Z,33.29
2024-01-16T08:36:04.231Z,33.02
2024-01-16T08:37:11.653Z,32.80
2024-01-16T08:38:04.370Z,32.63
2024-01-16T08:39:04.237Z,31.48
2024-01-16T08:40:04.210Z,31.77
2024-01-16T08:41:04.392Z,32.37
2024-01-16T08:42:04.257Z,32.08
2024-01-16T08:43:07.440Z,32.18
2024-01-16T08:44:04.262Z,32.22
2024-01-16T08:45:04.207Z,31.79
2024-01-16T08:46:04.457Z,31.94
2024-01-16T08:47:11.674Z,31.91
2024-01-16T08:48:05.823Z,32.02
2024-01-16T08:49:08.546Z,32.77
2024-01-16T08:50:04.284Z,33.17
2024-01-16T08:51:04.488Z,32.87
2024-01-16T08:52:04.241Z,30.31
2024-01-16T08:53:04.479Z,21.77
2024-01-16T08:54:04.332Z,20.72
2024-01-16T08:55:04.434Z,21.13
2024-01-16T08:56:04.285Z,22.19
2024-01-16T08:57:04.253Z,23.46
2024-01-16T08:58:04.404Z,23.92
2024-01-16T08:59:04.291Z,24.57
2024-01-16T09:00:04.436Z,25.25
2024-01-16T09:01:04.256Z,25.61
2024-01-16T09:02:04.383Z,26.05
2024-01-16T09:03:05.350Z,26.21
2024-01-16T09:04:04.305Z,26.52
2024-01-16T09:05:04.497Z,26.67
2024-01-16T09:06:04.736Z,26.79
2024-01-16T09:07:04.575Z,26.87
2024-01-16T09:08:04.356Z,26.90
2024-01-16T09:09:04.426Z,27.04
2024-01-16T09:10:04.431Z,27.11
2024-01-16T09:11:07.626Z,27.13
2024-01-16T09:12:04.405Z,27.22
2024-01-16T09:13:04.511Z,27.25
2024-01-16T09:14:06.010Z,27.31
2024-01-16T09:15:04.842Z,27.36
2024-01-16T09:16:04.623Z,27.43
2024-01-16T09:17:04.325Z,27.56
2024-01-16T09:18:05.910Z,27.52
2024-01-16T09:19:04.791Z,27.58
2024-01-16T09:20:05.332Z,27.59
2024-01-16T09:21:04.747Z,27.74
2024-01-16T09:22:05.363Z,27.71
2024-01-16T09:23:04.984Z,27.82
2024-01-16T09:24:05.008Z,27.67
2024-01-16T09:25:05.929Z,26.61
2024-01-16T09:26:05.114Z,23.59
2024-01-16T09:27:05.140Z,22.55
2024-01-16T09:28:05.151Z,22.00
2024-01-16T09:29:05.192Z,21.56
2024-01-16T09:30:06.282Z,21.17
2024-01-16T09:31:05.780Z,20.97
2024-01-16T09:32:05.951Z,21.07
2024-01-16T09:33:05.555Z,20.60
2024-01-16T09:34:08.236Z,20.47
2024-01-16T09:35:05.449Z,21.06
2024-01-16T09:36:05.409Z,21.26
2024-01-16T09:37:05.378Z,22.48
2024-01-16T09:38:05.502Z,22.98
2024-01-16T09:39:05.486Z,24.02
2024-01-16T09:40:09.127Z,24.29
2024-01-16T09:41:08.636Z,24.62
2024-01-16T09:42:05.439Z,24.71
2024-01-16T09:43:06.437Z,24.89
2024-01-16T09:44:05.445Z,25.02
2024-01-16T09:45:05.939Z,25.26
2024-01-16T09:46:05.467Z,25.35
2024-01-16T09:47:05.445Z,25.40
2024-01-16T09:48:05.660Z,25.54
2024-01-16T09:49:05.567Z,25.49
2024-01-16T09:50:05.860Z,25.57
2024-01-16T09:51:05.500Z,25.61
2024-01-16T09:52:05.454Z,18.83
2024-01-16T09:53:05.844Z,18.13
2024-01-16T09:54:05.451Z,18.33
2024-01-16T09:55:05.450Z,18.96
2024-01-16T09:56:05.865Z,20.09
2024-01-16T09:57:05.481Z,21.43
2024-01-16T09:58:05.449Z,21.72
2024-01-16T09:59:05.492Z,22.01
2024-01-16T10:00:05.885Z,22.43
2024-01-16T10:01:05.536Z,22.72
2024-01-16T10:02:05.497Z,22.92
2024-01-16T10:03:05.726Z,23.19
2024-01-16T10:04:05.621Z,23.44
2024-01-16T10:05:05.839Z,23.54
2024-01-16T10:06:05.756Z,23.72
2024-01-16T10:07:05.845Z,23.55
2024-01-16T10:08:05.881Z,23.54
2024-01-16T10:09:05.718Z,23.50
2024-01-16T10:10:05.869Z,23.48
2024-01-16T10:11:07.347Z,23.64
2024-01-16T10:12:05.939Z,23.63
2024-01-16T10:13:05.959Z,23.69
2024-01-16T10:14:06.601Z,23.66
2024-01-16T10:15:05.959Z,23.84
2024-01-16T10:16:06.375Z,23.87
2024-01-16T10:17:06.044Z,23.90
2024-01-16T10:18:06.281Z,23.80
2024-01-16T10:19:06.289Z,23.98
2024-01-16T10:20:06.427Z,24.08
2024-01-16T10:21:06.353Z,24.17
2024-01-16T10:22:06.350Z,24.15
2024-01-16T10:23:06.345Z,24.21
2024-01-16T10:24:06.370Z,24.29
2024-01-16T10:25:06.509Z,24.61
2024-01-16T10:26:06.439Z,24.34
2024-01-16T10:27:06.968Z,24.36
2024-01-16T10:28:06.505Z,24.38
2024-01-16T10:29:06.487Z,24.45
2024-01-16T10:30:07.062Z,24.43
2024-01-16T10:31:06.784Z,24.88
2024-01-16T10:32:07.092Z,24.74
2024-01-16T10:33:07.685Z,24.81
2024-01-16T10:34:06.751Z,25.20
2024-01-16T10:35:06.829Z,25.96
2024-01-16T10:36:06.711Z,25.74
2024-01-16T10:37:06.882Z,25.81
2024-01-16T10:38:06.951Z,26.08
2024-01-16T10:39:06.710Z,25.96
2024-01-16T10:40:07.786Z,25.73
2024-01-16T10:41:07.334Z,25.40
2024-01-16T10:42:06.861Z,25.81
2024-01-16T10:43:06.984Z,26.04
2024-01-16T10:44:07.021Z,26.31
2024-01-16T10:45:07.069Z,26.59
2024-01-16T10:46:07.435Z,26.65
2024-01-16T10:47:07.212Z,26.63
2024-01-16T10:48:08.013Z,26.85
2024-01-16T10:49:07.335Z,26.85
2024-01-16T10:50:07.390Z,27.03
2024-01-16T10:51:07.440Z,27.13
2024-01-16T10:52:07.480Z,27.37
2024-01-16T10:53:07.706Z,27.38
2024-01-16T10:54:07.818Z,27.61
2024-01-16T10:55:07.870Z,27.81
2024-01-16T10:56:07.666Z,27.87
2024-01-16T10:57:07.681Z,28.05
2024-01-16T10:58:08.516Z,28.22
2024-01-16T10:59:08.471Z,28.39
2024-01-16T11:00:08.224Z,28.62
2024-01-16T11:01:08.046Z,28.80
2024-01-16T11:02:08.117Z,29.05
2024-01-16T11:03:07.734Z,29.01
2024-01-16T11:04:07.918Z,29.28
2024-01-16T11:05:07.759Z,29.35
2024-01-16T11:06:07.790Z,29.48
2024-01-16T11:07:07.736Z,29.56
2024-01-16T11:08:07.737Z,29.67
2024-01-16T11:09:07.746Z,29.93
2024-01-16T11:10:07.892Z,29.90
2024-01-16T11:11:07.739Z,29.94
2024-01-16T11:12:07.734Z,30.12
2024-01-16T11:13:07.721Z,30.24
2024-01-16T11:14:07.731Z,30.35
2024-01-16T11:15:08.896Z,30.50
2024-01-16T11:16:07.793Z,30.58
2024-01-16T11:17:07.738Z,30.69
2024-01-16T11:18:08.096Z,30.72
2024-01-16T11:19:24.894Z,30.75
2024-01-16T11:20:21.939Z,31.17
2024-01-16T11:21:09.981Z,30.95
2024-01-16T11:22:07.989Z,30.74
2024-01-16T11:23:07.752Z,27.39
2024-01-16T11:24:07.744Z,28.50
2024-01-16T11:25:07.881Z,28.99
2024-01-16T11:26:07.768Z,29.44
2024-01-16T11:27:07.894Z,29.72
2024-01-16T11:28:07.804Z,29.92
2024-01-16T11:29:07.834Z,30.08
2024-01-16T11:30:08.016Z,30.16
2024-01-16T11:31:07.912Z,30.36
2024-01-16T11:32:18.682Z,30.56
2024-01-16T11:33:08.007Z,30.76
2024-01-16T11:34:07.997Z,30.91
2024-01-16T11:35:08.030Z,31.11
2024-01-16T11:36:07.913Z,31.33
2024-01-16T11:37:07.887Z,31.30
2024-01-16T11:38:07.900Z,31.65
2024-01-16T11:39:07.901Z,31.83
2024-01-16T11:40:07.953Z,31.91
2024-01-16T11:41:07.873Z,32.15
2024-01-16T11:42:07.935Z,32.32
2024-01-16T11:43:07.895Z,32.51
2024-01-16T11:44:07.885Z,32.69
2024-01-16T11:45:08.448Z,32.77
2024-01-16T11:46:07.881Z,32.70
2024-01-16T11:47:07.896Z,32.91
2024-01-16T11:48:08.055Z,32.84
2024-01-16T11:49:08.079Z,33.03
2024-01-16T11:50:08.383Z,33.05
2024-01-16T11:51:08.428Z,33.18
2024-01-16T11:52:08.201Z,33.40
2024-01-16T11:53:08.254Z,33.46
2024-01-16T11:54:09.177Z,33.81
2024-01-16T11:55:08.357Z,33.79
2024-01-16T11:56:08.884Z,33.92
2024-01-16T11:57:08.524Z,34.05
2024-01-16T11:58:08.532Z,34.30
2024-01-16T11:59:08.572Z,34.58
2024-01-16T12:00:08.642Z,34.36
2024-01-16T12:01:08.774Z,34.59
2024-01-16T12:02:08.716Z,34.86
2024-01-16T12:03:09.608Z,35.02
2024-01-16T12:04:08.788Z,35.06
2024-01-16T12:05:08.854Z,35.06
2024-01-16T12:06:08.949Z,35.14
2024-01-16T12:07:08.846Z,35.19
2024-01-16T12:08:08.902Z,35.22
2024-01-16T12:09:08.818Z,35.27
2024-01-16T12:10:08.764Z,35.38
2024-01-16T12:11:08.908Z,35.48
2024-01-16T12:12:08.788Z,35.67
2024-01-16T12:13:08.893Z,35.92
2024-01-16T12:14:08.766Z,36.31
2024-01-16T12:15:08.767Z,36.73
2024-01-16T12:16:08.784Z,36.61
2024-01-16T12:17:08.900Z,36.14
2024-01-16T12:19:07.913Z,24.81
2024-01-16T12:20:08.972Z,26.16
2024-01-16T12:21:08.812Z,26.81
2024-01-16T12:22:08.790Z,27.35
2024-01-16T12:23:08.783Z,27.93
2024-01-16T12:24:11.305Z,28.40
2024-01-16T12:25:09.398Z,28.78
2024-01-16T12:26:09.066Z,29.87
2024-01-16T12:27:09.121Z,30.29
2024-01-16T12:28:10.538Z,30.27
2024-01-16T12:29:09.235Z,20.62
2024-01-16T12:30:09.451Z,18.89
2024-01-16T12:31:09.312Z,18.53
2024-01-16T12:32:09.369Z,18.44
2024-01-16T12:33:11.491Z,18.33
2024-01-16T12:34:10.130Z,18.88
2024-01-16T12:35:09.468Z,19.30
2024-01-16T12:36:09.484Z,19.85
2024-01-16T12:37:09.396Z,20.69
2024-01-16T12:38:09.918Z,21.07
2024-01-16T12:39:09.432Z,21.40
2024-01-16T12:40:09.544Z,21.82
2024-01-16T12:41:09.441Z,22.22
2024-01-16T12:42:09.527Z,22.22
2024-01-16T12:43:09.513Z,22.20
2024-01-16T12:44:15.478Z,22.13
2024-01-16T12:45:09.943Z,22.07
2024-01-16T12:46:09.528Z,22.06
2024-01-16T12:47:09.544Z,22.05
2024-01-16T12:48:09.801Z,22.00
2024-01-16T12:49:09.643Z,21.93
2024-01-16T12:50:10.023Z,21.92
2024-01-16T12:51:09.707Z,21.85
2024-01-16T12:52:09.564Z,21.87
2024-01-16T12:53:09.532Z,21.85
2024-01-16T12:54:09.621Z,21.78
2024-01-16T12:55:09.924Z,21.82
2024-01-16T12:56:09.543Z,21.78
2024-01-16T12:57:09.610Z,21.75
2024-01-16T12:58:09.538Z,21.74
2024-01-16T12:59:09.541Z,21.75
2024-01-16T13:00:09.949Z,21.73
2024-01-16T13:01:09.576Z,21.72
2024-01-16T13:02:09.545Z,21.79
2024-01-16T13:03:10.001Z,21.78
2024-01-16T13:04:09.912Z,21.80
2024-01-16T13:05:10.000Z,21.83
2024-01-16T13:06:09.708Z,21.93
2024-01-16T13:07:09.814Z,22.00
2024-01-16T13:08:09.952Z,21.99
2024-01-16T13:09:09.921Z,22.18
2024-01-16T13:10:10.324Z,22.15
2024-01-16T13:11:09.568Z,22.22
2024-01-16T13:12:09.607Z,22.27
2024-01-16T13:13:09.645Z,22.28
2024-01-16T13:14:09.675Z,22.41
2024-01-16T13:15:09.939Z,22.32
2024-01-16T13:16:09.731Z,22.47
2024-01-16T13:17:09.748Z,22.47
2024-01-16T13:18:09.890Z,22.58
2024-01-16T13:19:09.957Z,22.57
2024-01-16T13:20:09.938Z,22.55
2024-01-16T13:21:09.852Z,22.65
2024-01-16T13:22:09.875Z,22.78
2024-01-16T13:23:09.910Z,22.76
2024-01-16T13:24:10.037Z,23.03
2024-01-16T13:25:10.419Z,22.97
2024-01-16T13:26:09.980Z,23.07
2024-01-16T13:27:09.970Z,22.96
2024-01-16T13:28:09.996Z,23.05
2024-01-16T13:29:10.013Z,23.21
2024-01-16T13:30:10.576Z,23.30
2024-01-16T13:31:10.105Z,23.43
2024-01-16T13:32:10.918Z,23.22
2024-01-16T13:33:10.244Z,23.36
2024-01-16T13:34:10.326Z,23.38
2024-01-16T13:35:10.734Z,23.29
2024-01-16T13:36:10.168Z,23.45
2024-01-16T13:37:16.134Z,23.41
2024-01-16T13:38:10.191Z,23.38
2024-01-16T13:39:10.216Z,23.34
2024-01-16T13:40:10.550Z,23.42
2024-01-16T13:41:10.195Z,23.50
2024-01-16T13:42:10.217Z,23.56
2024-01-16T13:43:10.223Z,23.50
2024-01-16T13:44:10.244Z,23.71